createdAt,value
2018-06-25T00:00:14.188Z,2.40
2018-06-25T00:02:42.262Z,2.70
2018-06-25T00:05:10.387Z,2.40
2018-06-25T00:07:38.454Z,2.70
2018-06-25T00:10:06.675Z,2.20
2018-06-25T00:12:34.795Z,2.50
2018-06-25T00:15:02.919Z,2.93
2018-06-25T00:17:31.036Z,4.50
2018-06-25T00:19:59.176Z,4.70
2018-06-25T00:22:27.282Z,4.97
2018-06-25T00:24:55.378Z,3.73
2018-06-25T00:27:23.571Z,4.90
2018-06-25T00:29:51.675Z,4.13
2018-06-25T00:32:19.765Z,5.00
2018-06-25T00:34:47.875Z,4.70
2018-06-25T00:37:15.998Z,5.10
2018-06-25T00:39:44.094Z,4.80
2018-06-25T00:42:12.236Z,4.90
2018-06-25T00:44:40.316Z,4.73
2018-06-25T00:47:08.447Z,4.43
2018-06-25T00:49:36.538Z,4.53
2018-06-25T00:52:04.659Z,4.80
2018-06-25T00:54:32.744Z,4.40
2018-06-25T00:57:00.840Z,4.53
2018-06-25T00:59:40.188Z,4.50
2018-06-25T01:02:08.303Z,3.80
2018-06-25T01:04:36.379Z,4.33
2018-06-25T01:07:04.474Z,3.53
2018-06-25T01:09:32.595Z,5.00
2018-06-25T01:12:00.698Z,3.90
2018-06-25T01:14:28.770Z,4.10
2018-06-25T01:16:56.861Z,4.60
2018-06-25T01:19:25.037Z,4.10
2018-06-25T01:21:53.128Z,4.00
2018-06-25T01:24:21.195Z,4.07
2018-06-25T01:26:49.289Z,3.77
2018-06-25T01:29:17.517Z,4.07
2018-06-25T01:31:45.583Z,4.70
2018-06-25T01:34:13.723Z,3.63
2018-06-25T01:36:41.806Z,3.80
2018-06-25T01:39:11.107Z,4.10
2018-06-25T01:41:39.344Z,4.10
2018-06-25T01:44:07.551Z,4.07
2018-06-25T01:46:36.050Z,4.20
2018-06-25T01:49:04.275Z,3.87
2018-06-25T01:51:32.360Z,4.53
2018-06-25T01:54:00.461Z,3.97
2018-06-25T01:56:28.534Z,4.27
2018-06-25T01:58:56.624Z,4.50
2018-06-25T02:01:24.744Z,4.23
2018-06-25T02:03:52.854Z,4.17
2018-06-25T02:06:20.947Z,4.13
2018-06-25T02:08:49.019Z,5.00
2018-06-25T02:11:17.142Z,5.33
2018-06-25T02:13:45.237Z,5.03
2018-06-25T02:16:13.303Z,5.17
2018-06-25T02:18:41.452Z,5.67
2018-06-25T02:21:09.559Z,4.97
2018-06-25T02:23:37.638Z,5.53
2018-06-25T02:26:05.783Z,5.73
2018-06-25T02:28:33.888Z,4.97
2018-06-25T02:31:01.958Z,5.40
2018-06-25T02:33:30.032Z,5.97
2018-06-25T02:35:58.096Z,4.87
2018-06-25T02:38:26.188Z,5.50
2018-06-25T02:40:54.259Z,4.73
2018-06-25T02:43:22.330Z,5.00
2018-06-25T02:45:50.407Z,5.73
2018-06-25T02:48:18.496Z,5.07
2018-06-25T02:50:46.564Z,5.90
2018-06-25T02:53:14.672Z,5.00
2018-06-25T02:55:42.827Z,6.23
2018-06-25T02:58:10.916Z,5.13
2018-06-25T03:00:39.007Z,5.17
2018-06-25T03:03:07.083Z,5.30
2018-06-25T03:05:35.215Z,5.50
2018-06-25T03:08:03.316Z,4.83
2018-06-25T03:10:31.425Z,5.20
2018-06-25T03:12:59.561Z,4.93
2018-06-25T03:15:27.676Z,5.27
2018-06-25T03:17:55.806Z,5.53
2018-06-25T03:20:23.887Z,5.17
2018-06-25T03:22:51.971Z,6.03
2018-06-25T03:25:20.158Z,5.90
2018-06-25T03:27:48.296Z,5.70
2018-06-25T03:30:16.374Z,5.30
2018-06-25T03:32:44.545Z,6.20
2018-06-25T03:35:12.629Z,6.10
2018-06-25T03:37:40.810Z,6.10
2018-06-25T03:40:08.957Z,6.67
2018-06-25T03:42:37.040Z,6.70
2018-06-25T03:45:05.264Z,6.10
2018-06-25T03:47:33.448Z,7.53
2018-06-25T03:50:01.631Z,5.97
2018-06-25T03:52:29.752Z,7.20
2018-06-25T03:54:57.860Z,7.20
2018-06-25T03:57:26.009Z,6.40
2018-06-25T03:59:54.115Z,7.33
2018-06-25T04:02:22.188Z,6.43
2018-06-25T04:04:50.409Z,7.07
2018-06-25T04:07:18.533Z,6.97
2018-06-25T04:09:46.633Z,6.30
2018-06-25T04:12:14.800Z,6.30
2018-06-25T04:15:02.319Z,7.00
2018-06-25T04:17:30.411Z,5.70
2018-06-25T04:19:58.471Z,5.77
2018-06-25T04:22:26.556Z,5.97
2018-06-25T04:24:54.657Z,5.90
2018-06-25T04:27:22.739Z,6.67
2018-06-25T04:29:50.819Z,5.70
2018-06-25T04:32:18.899Z,5.50
2018-06-25T04:34:46.992Z,5.60
2018-06-25T04:40:08.058Z,5.10
2018-06-25T04:42:36.144Z,5.80
2018-06-25T04:45:04.401Z,5.57
2018-06-25T04:47:32.459Z,4.97
2018-06-25T04:50:00.575Z,4.10
2018-06-25T04:52:28.627Z,5.43
2018-06-25T04:54:56.707Z,5.40
2018-06-25T04:57:24.771Z,5.10
2018-06-25T04:59:52.842Z,4.93
2018-06-25T05:02:20.930Z,4.70
2018-06-25T05:04:49.017Z,5.00
2018-06-25T05:07:17.081Z,4.63
2018-06-25T05:09:45.168Z,4.90
2018-06-25T05:12:13.310Z,4.63
2018-06-25T05:14:41.411Z,4.57
2018-06-25T05:17:09.482Z,3.97
2018-06-25T05:19:37.555Z,4.03
2018-06-25T05:22:05.693Z,3.60
2018-06-25T05:24:33.791Z,2.97
2018-06-25T05:27:01.913Z,3.30
2018-06-25T05:29:30.034Z,3.00
2018-06-25T05:31:58.433Z,3.53
2018-06-25T05:34:26.515Z,3.10
2018-06-25T05:36:54.982Z,2.87
2018-06-25T05:39:23.070Z,3.60
2018-06-25T05:41:51.163Z,2.80
2018-06-25T05:44:19.263Z,3.90
2018-06-25T05:46:47.327Z,2.73
2018-06-25T05:49:15.421Z,2.80
2018-06-25T05:51:43.514Z,3.07
2018-06-25T05:54:11.591Z,2.70
2018-06-25T05:56:39.679Z,2.83
2018-06-25T05:59:07.783Z,3.17
2018-06-25T06:01:35.880Z,2.90
2018-06-25T06:04:03.951Z,4.10
2018-06-25T06:06:32.048Z,2.83
2018-06-25T06:09:00.190Z,3.03
2018-06-25T06:11:28.329Z,3.03
2018-06-25T06:13:56.815Z,2.67
2018-06-25T06:16:24.855Z,2.17
2018-06-25T06:18:52.963Z,2.60
2018-06-25T06:21:21.039Z,2.57
2018-06-25T06:23:49.120Z,2.60
2018-06-25T06:26:17.286Z,2.27
2018-06-25T06:28:51.719Z,2.10
2018-06-25T06:31:19.790Z,2.50
2018-06-25T06:33:47.871Z,2.07
2018-06-25T06:36:15.943Z,2.17
2018-06-25T06:38:44.047Z,2.70
2018-06-25T06:41:12.131Z,2.30
2018-06-25T06:43:40.208Z,2.57
2018-06-25T06:46:08.287Z,1.87
2018-06-25T06:48:36.368Z,2.30
2018-06-25T06:51:04.435Z,1.90
2018-06-25T06:53:32.524Z,2.70
2018-06-25T06:56:00.627Z,2.60
2018-06-25T06:58:28.738Z,2.60
2018-06-25T07:00:56.795Z,2.20
2018-06-25T07:03:24.904Z,2.23
2018-06-25T07:05:53.120Z,2.33
2018-06-25T07:08:21.307Z,1.80
2018-06-25T07:10:49.379Z,2.13
2018-06-25T07:13:17.441Z,1.90
2018-06-25T07:15:45.516Z,2.27
2018-06-25T07:18:13.614Z,1.97
2018-06-25T07:20:41.702Z,2.00
2018-06-25T07:23:09.780Z,1.77
2018-06-25T07:25:37.862Z,1.70
2018-06-25T07:28:06.274Z,1.57
2018-06-25T07:30:34.356Z,1.40
2018-06-25T07:33:02.483Z,1.53
2018-06-25T07:35:30.568Z,1.00
2018-06-25T07:37:58.668Z,0.90
2018-06-25T07:40:26.728Z,0.90
2018-06-25T07:42:54.817Z,0.83
2018-06-25T07:45:22.928Z,1.00
2018-06-25T07:47:51.018Z,1.23
2018-06-25T07:50:19.176Z,0.87
2018-06-25T07:52:47.263Z,0.73
2018-06-25T07:55:15.343Z,0.73
2018-06-25T07:57:43.432Z,0.60
2018-06-25T08:00:11.521Z,0.87
2018-06-25T08:02:39.612Z,0.70
2018-06-25T08:05:07.690Z,0.73
2018-06-25T08:07:35.763Z,0.60
2018-06-25T08:10:04.009Z,0.80
2018-06-25T08:12:32.080Z,0.87
2018-06-25T08:15:00.219Z,0.70
2018-06-25T08:17:28.299Z,0.70
2018-06-25T08:19:56.647Z,0.80
2018-06-25T08:22:24.800Z,0.70
2018-06-25T08:24:52.891Z,0.80
2018-06-25T08:27:21.024Z,0.70
2018-06-25T08:29:49.173Z,0.90
2018-06-25T08:32:17.164Z,0.60
2018-06-25T08:34:45.272Z,0.80
2018-06-25T08:37:13.419Z,0.90
2018-06-25T08:39:41.500Z,0.57
2018-06-25T08:42:09.592Z,0.60
2018-06-25T08:44:37.703Z,0.70
2018-06-25T08:47:05.982Z,0.53
2018-06-25T08:49:34.051Z,0.50
2018-06-25T08:52:02.221Z,0.60
2018-06-25T08:54:30.207Z,0.63
2018-06-25T08:56:58.380Z,0.60
2018-06-25T08:59:27.057Z,0.50
2018-06-25T09:01:55.172Z,0.53
2018-06-25T09:04:23.268Z,0.57
2018-06-25T09:06:51.312Z,0.70
2018-06-25T09:09:19.381Z,0.67
2018-06-25T09:11:47.451Z,0.60
2018-06-25T09:14:15.526Z,0.60
2018-06-25T09:16:43.590Z,0.70
2018-06-25T09:19:11.673Z,0.90
2018-06-25T09:21:39.743Z,0.60
2018-06-25T09:24:07.822Z,0.70
2018-06-25T09:26:40.568Z,0.60
2018-06-25T09:29:09.155Z,0.60
2018-06-25T09:31:37.226Z,1.13
2018-06-25T09:34:10.387Z,0.70
2018-06-25T09:36:38.610Z,0.60
2018-06-25T09:39:08.713Z,0.60
2018-06-25T09:41:36.929Z,0.70
2018-06-25T09:44:04.903Z,0.67
2018-06-25T09:46:32.971Z,0.50
2018-06-25T09:49:01.059Z,0.67
2018-06-25T09:51:29.191Z,0.60
2018-06-25T09:53:57.261Z,0.50
2018-06-25T09:56:25.374Z,0.60
2018-06-25T09:58:53.476Z,0.60
2018-06-25T10:01:21.563Z,0.70
2018-06-25T10:03:49.658Z,0.73
2018-06-25T10:06:17.747Z,0.60
2018-06-25T10:08:45.800Z,0.60
2018-06-25T10:11:13.895Z,0.60
2018-06-25T10:13:41.985Z,0.60
2018-06-25T10:16:10.091Z,0.40
2018-06-25T10:18:38.187Z,0.70
2018-06-25T10:21:06.460Z,0.60
2018-06-25T10:23:34.510Z,0.70
2018-06-25T10:26:02.643Z,0.70
2018-06-25T10:28:30.776Z,0.50
2018-06-25T10:30:58.840Z,0.60
2018-06-25T10:33:26.898Z,0.60
2018-06-25T10:35:55.120Z,0.57
2018-06-25T10:38:23.208Z,0.50
2018-06-25T10:40:51.290Z,0.90
2018-06-25T10:43:19.348Z,0.50
2018-06-25T10:45:47.426Z,0.50
2018-06-25T10:48:15.500Z,0.53
2018-06-25T10:50:43.609Z,0.73
2018-06-25T10:53:11.697Z,0.60
2018-06-25T10:55:39.771Z,0.50
2018-06-25T10:58:07.886Z,0.80
2018-06-25T11:00:35.993Z,0.70
2018-06-25T11:03:04.081Z,0.60
2018-06-25T11:05:32.170Z,0.60
2018-06-25T11:08:00.265Z,0.50
2018-06-25T11:10:28.324Z,0.60
2018-06-25T11:12:56.779Z,0.60
2018-06-25T11:15:24.862Z,0.70
2018-06-25T11:17:52.978Z,0.50
2018-06-25T11:20:21.053Z,0.60
2018-06-25T11:22:49.243Z,0.60
2018-06-25T11:25:17.327Z,0.50
2018-06-25T11:27:45.415Z,0.80
2018-06-25T11:30:13.519Z,0.50
2018-06-25T11:32:41.604Z,0.40
2018-06-25T11:35:09.664Z,0.63
2018-06-25T11:37:37.855Z,0.50
2018-06-25T11:40:05.931Z,0.50
2018-06-25T11:42:34.007Z,0.70
2018-06-25T11:45:02.099Z,0.60
2018-06-25T11:47:30.211Z,0.80
2018-06-25T11:49:58.423Z,0.60
2018-06-25T11:52:26.504Z,0.70
2018-06-25T11:54:54.603Z,0.60
2018-06-25T11:57:22.679Z,0.60
2018-06-25T11:59:50.750Z,0.60
2018-06-25T12:02:18.864Z,0.83
2018-06-25T12:04:46.997Z,0.70
2018-06-25T12:07:15.095Z,0.57
2018-06-25T12:09:43.187Z,0.57
2018-06-25T12:12:11.278Z,0.50
2018-06-25T12:14:39.378Z,0.70
2018-06-25T12:17:07.415Z,0.90
2018-06-25T12:19:35.570Z,0.60
2018-06-25T12:22:03.698Z,0.97
2018-06-25T12:24:31.783Z,0.70
2018-06-25T12:26:59.877Z,0.60
2018-06-25T12:29:27.993Z,0.60
2018-06-25T12:31:56.081Z,0.70
2018-06-25T12:34:24.168Z,0.50
2018-06-25T12:36:52.233Z,0.70
2018-06-25T12:39:20.316Z,0.90
2018-06-25T12:41:48.404Z,0.80
2018-06-25T12:44:16.472Z,0.50
2018-06-25T12:46:44.535Z,0.77
2018-06-25T12:49:12.619Z,0.60
2018-06-25T12:51:40.702Z,0.70
2018-06-25T12:54:08.795Z,0.60
2018-06-25T12:56:36.859Z,0.50
2018-06-25T12:59:05.062Z,0.60
2018-06-25T13:01:33.229Z,0.50
2018-06-25T13:04:01.266Z,0.57
2018-06-25T13:06:29.363Z,0.60
2018-06-25T13:08:57.448Z,0.60
2018-06-25T13:11:25.495Z,0.63
2018-06-25T13:13:53.557Z,0.60
2018-06-25T13:16:21.647Z,0.70
2018-06-25T13:18:49.726Z,0.80
2018-06-25T13:21:17.814Z,0.60
2018-06-25T13:23:45.916Z,0.70
2018-06-25T13:26:13.990Z,0.57
2018-06-25T13:28:42.159Z,0.50
2018-06-25T13:31:10.293Z,0.77
2018-06-25T13:33:38.314Z,0.67
2018-06-25T13:36:06.926Z,0.60
2018-06-25T13:38:35.180Z,0.50
2018-06-25T13:41:03.278Z,0.70
2018-06-25T13:43:31.370Z,0.50
2018-06-25T13:45:59.480Z,0.60
2018-06-25T13:48:27.551Z,0.60
2018-06-25T13:50:55.635Z,0.57
2018-06-25T13:53:23.746Z,0.60
2018-06-25T13:55:51.835Z,0.80
2018-06-25T13:58:19.933Z,0.60
2018-06-25T14:00:47.995Z,0.70
2018-06-25T14:03:16.083Z,0.67
2018-06-25T14:05:44.182Z,2.13
2018-06-25T14:08:12.250Z,0.70
2018-06-25T14:10:40.315Z,0.60
2018-06-25T14:13:08.429Z,0.70
2018-06-25T14:15:36.494Z,0.70
2018-06-25T14:18:04.584Z,0.60
2018-06-25T14:20:32.660Z,0.90
2018-06-25T14:23:00.755Z,0.70
2018-06-25T14:25:28.830Z,0.50
2018-06-25T14:28:02.303Z,0.70
2018-06-25T14:31:34.106Z,0.63
2018-06-25T14:34:07.605Z,0.70
2018-06-25T14:36:35.680Z,0.60
2018-06-25T14:39:05.261Z,0.60
2018-06-25T14:41:33.360Z,0.70
2018-06-25T14:44:01.439Z,0.67
2018-06-25T14:46:29.528Z,0.50
2018-06-25T14:48:57.623Z,0.60
2018-06-25T14:51:25.710Z,0.60
2018-06-25T14:53:53.919Z,0.73
2018-06-25T14:56:21.983Z,0.60
2018-06-25T14:58:50.060Z,0.80
2018-06-25T15:01:18.173Z,0.67
2018-06-25T15:03:46.283Z,0.67
2018-06-25T15:06:14.372Z,0.80
2018-06-25T15:08:42.451Z,0.60
2018-06-25T15:11:10.532Z,1.03
2018-06-25T15:13:38.660Z,0.80
2018-06-25T15:16:06.727Z,0.60
2018-06-25T15:18:34.804Z,0.70
2018-06-25T15:21:02.871Z,0.70
2018-06-25T15:23:30.963Z,0.80
2018-06-25T15:25:59.136Z,0.73
2018-06-25T15:28:27.183Z,0.60
2018-06-25T15:30:55.315Z,0.70
2018-06-25T15:33:23.393Z,0.50
2018-06-25T15:35:51.531Z,0.80
2018-06-25T15:38:19.632Z,0.67
2018-06-25T15:40:47.765Z,0.70
2018-06-25T15:43:15.848Z,0.77
2018-06-25T15:45:43.975Z,0.90
2018-06-25T15:48:12.040Z,0.67
2018-06-25T15:50:40.147Z,0.70
2018-06-25T15:53:08.254Z,0.63
2018-06-25T15:55:36.316Z,0.63
2018-06-25T15:58:04.535Z,0.80
2018-06-25T16:00:32.920Z,0.60
2018-06-25T16:03:01.010Z,0.50
2018-06-25T16:05:29.109Z,0.80
2018-06-25T16:08:02.016Z,0.70
2018-06-25T16:10:30.141Z,0.90
2018-06-25T16:13:11.489Z,0.87
2018-06-25T16:15:39.676Z,1.07
2018-06-25T16:18:07.795Z,1.13
2018-06-25T16:20:35.880Z,2.10
2018-06-25T16:23:03.952Z,1.10
2018-06-25T16:25:32.025Z,1.10
2018-06-25T16:28:00.150Z,0.90
2018-06-25T16:30:28.214Z,1.30
2018-06-25T16:32:56.291Z,1.07
2018-06-25T16:35:24.360Z,1.03
2018-06-25T16:37:52.452Z,1.20
2018-06-25T16:40:20.540Z,1.20
2018-06-25T16:42:48.627Z,1.83
2018-06-25T16:45:16.709Z,1.40
2018-06-25T16:47:44.788Z,1.53
2018-06-25T16:50:12.884Z,2.43
2018-06-25T16:52:41.019Z,1.53
2018-06-25T16:55:09.111Z,1.40
2018-06-25T16:57:37.195Z,1.60
2018-06-25T17:00:05.973Z,2.80
2018-06-25T17:02:34.067Z,2.07
2018-06-25T17:05:02.311Z,1.10
2018-06-25T17:07:30.416Z,1.50
2018-06-25T17:09:58.467Z,1.60
2018-06-25T17:12:26.591Z,1.17
2018-06-25T17:14:54.659Z,1.50
2018-06-25T17:17:22.750Z,1.13
2018-06-25T17:19:50.856Z,1.57
2018-06-25T17:22:18.952Z,1.37
2018-06-25T17:24:47.053Z,1.30
2018-06-25T17:27:15.562Z,1.37
2018-06-25T17:29:43.666Z,1.33
2018-06-25T17:32:11.728Z,1.70
2018-06-25T17:34:39.817Z,2.07
2018-06-25T17:37:07.916Z,1.70
2018-06-25T17:39:36.009Z,1.73
2018-06-25T17:42:04.111Z,2.10
2018-06-25T17:44:32.531Z,2.40
2018-06-25T17:47:01.104Z,2.37
2018-06-25T17:49:29.302Z,2.43
2018-06-25T17:51:57.288Z,2.40
2018-06-25T17:54:25.605Z,2.73
2018-06-25T17:56:53.736Z,2.47
2018-06-25T17:59:21.847Z,3.40
2018-06-25T18:01:49.964Z,2.80
2018-06-25T18:04:18.136Z,3.07
2018-06-25T18:06:46.211Z,2.53
2018-06-25T18:09:14.278Z,2.83
2018-06-25T18:11:42.361Z,3.40
2018-06-25T18:14:10.499Z,4.03
2018-06-25T18:16:38.576Z,3.03
2018-06-25T18:19:06.746Z,3.10
2018-06-25T18:21:34.836Z,2.97
2018-06-25T18:24:03.280Z,2.70
2018-06-25T18:26:31.414Z,2.33
2018-06-25T18:29:00.008Z,3.30
2018-06-25T18:31:29.071Z,3.13
2018-06-25T18:33:58.230Z,2.27
2018-06-25T18:36:27.801Z,3.30
2018-06-25T18:38:56.686Z,2.47
2018-06-25T18:41:25.407Z,3.00
2018-06-25T18:43:54.160Z,2.47
2018-06-25T18:46:23.159Z,2.37
2018-06-25T18:48:51.340Z,2.23
2018-06-25T18:51:19.481Z,3.00
2018-06-25T18:53:49.174Z,2.90
2018-06-25T18:56:17.977Z,2.63
2018-06-25T18:58:46.419Z,3.00
2018-06-25T19:01:24.526Z,2.43
2018-06-25T19:03:53.783Z,2.63
2018-06-25T19:06:22.611Z,2.70
2018-06-25T19:08:51.046Z,2.70
2018-06-25T19:11:19.390Z,2.30
2018-06-25T19:13:50.383Z,3.00
2018-06-25T19:16:22.314Z,2.10
2018-06-25T19:18:52.333Z,3.00
2018-06-25T19:21:21.078Z,3.10
2018-06-25T19:23:52.822Z,2.60
2018-06-25T19:26:21.529Z,2.60
2018-06-25T19:28:53.337Z,2.57
2018-06-25T19:31:23.361Z,2.73
2018-06-25T19:33:52.028Z,2.17
2018-06-25T19:36:20.196Z,2.30
2018-06-25T19:38:48.760Z,2.30
2018-06-25T19:41:16.942Z,2.40
2018-06-25T19:43:49.361Z,2.97
2018-06-25T19:46:17.899Z,2.67
2018-06-25T19:48:51.467Z,2.70
2018-06-25T19:51:20.840Z,2.40
2018-06-25T19:53:49.124Z,2.60
2018-06-25T19:56:17.755Z,2.40
2018-06-25T19:58:47.685Z,2.50
2018-06-25T20:01:16.503Z,2.37
2018-06-25T20:03:45.707Z,2.83
2018-06-25T20:06:17.766Z,2.53
2018-06-25T20:08:47.734Z,3.20
2018-06-25T20:11:15.901Z,2.50
2018-06-25T20:13:44.749Z,2.70
2018-06-25T20:16:17.190Z,3.60
2018-06-25T20:18:46.347Z,3.70
2018-06-25T20:21:14.572Z,3.40
2018-06-25T20:23:44.355Z,2.90
2018-06-25T20:26:13.116Z,2.87
2018-06-25T20:28:42.890Z,3.20
2018-06-25T20:31:11.291Z,2.30
2018-06-25T20:33:53.564Z,2.63
2018-06-25T20:36:30.295Z,4.00
2018-06-25T20:39:00.063Z,3.07
2018-06-25T20:41:29.265Z,3.80
2018-06-25T20:43:58.715Z,3.10
2018-06-25T20:46:32.393Z,3.10
2018-06-25T20:49:00.790Z,2.87
2018-06-25T20:51:29.179Z,3.37
2018-06-25T20:53:57.874Z,2.40
2018-06-25T20:56:28.333Z,3.10
2018-06-25T20:58:57.890Z,2.70
2018-06-25T21:01:26.512Z,3.27
2018-06-25T21:03:56.387Z,3.10
2018-06-25T21:06:27.105Z,3.20
2018-06-25T21:08:56.207Z,3.63
2018-06-25T21:11:24.599Z,4.17
2018-06-25T21:13:54.618Z,4.23
2018-06-25T21:16:24.474Z,3.83
2018-06-25T21:18:52.601Z,4.00
2018-06-25T21:21:22.926Z,3.70
2018-06-25T21:23:51.581Z,3.60
2018-06-25T21:26:19.951Z,4.20
2018-06-25T21:28:49.343Z,3.80
2018-06-25T21:31:17.840Z,4.97
2018-06-25T21:33:47.077Z,5.20
2018-06-25T21:36:16.930Z,4.83
2018-06-25T21:38:48.115Z,5.70
2018-06-25T21:41:17.065Z,6.50
2018-06-25T21:43:46.092Z,5.23
2018-06-25T21:46:15.293Z,4.70
2018-06-25T21:48:44.547Z,5.60
2018-06-25T21:51:12.752Z,5.90
2018-06-25T21:53:41.354Z,4.83
2018-06-25T21:56:10.180Z,3.90
2018-06-25T21:58:42.238Z,5.20
2018-06-25T22:01:11.523Z,4.30
2018-06-25T22:03:40.437Z,4.50
2018-06-25T22:06:10.872Z,6.90
2018-06-25T22:08:40.287Z,6.50
2018-06-25T22:11:09.425Z,5.80
2018-06-25T22:13:37.667Z,6.50
2018-06-25T22:16:06.698Z,7.07
2018-06-25T22:18:35.568Z,7.30
2018-06-25T22:21:03.821Z,7.10
2018-06-25T22:23:32.334Z,7.00
2018-06-25T22:26:00.751Z,6.27
2018-06-25T22:28:34.785Z,6.97
2018-06-25T22:31:03.490Z,7.27
2018-06-25T22:33:32.485Z,7.73
2018-06-25T22:36:03.388Z,7.27
2018-06-25T22:38:31.719Z,8.37
2018-06-25T22:41:01.471Z,8.37
2018-06-25T22:43:30.885Z,7.50
2018-06-25T22:46:04.282Z,8.33
2018-06-25T22:48:32.463Z,6.67
2018-06-25T22:51:00.543Z,7.50
2018-06-25T22:53:28.679Z,8.27
2018-06-25T22:55:56.760Z,8.27
2018-06-25T22:58:24.839Z,7.60
2018-06-25T23:00:52.976Z,7.40
2018-06-25T23:03:21.063Z,8.23
2018-06-25T23:05:49.135Z,7.40
2018-06-25T23:08:17.220Z,7.13
2018-06-25T23:10:45.279Z,7.13
2018-06-25T23:13:13.555Z,6.70
2018-06-25T23:15:41.637Z,6.47
2018-06-25T23:18:09.751Z,6.60
2018-06-25T23:20:37.891Z,7.60
2018-06-25T23:23:06.096Z,7.20
2018-06-25T23:25:34.203Z,6.23
2018-06-25T23:28:02.273Z,7.17
2018-06-25T23:30:30.349Z,8.00
2018-06-25T23:32:58.419Z,6.60
2018-06-25T23:35:26.506Z,7.13
2018-06-25T23:37:54.596Z,6.57
2018-06-25T23:40:22.695Z,6.77
2018-06-25T23:42:50.772Z,6.30
2018-06-25T23:45:18.866Z,6.80
2018-06-25T23:47:46.950Z,7.03
2018-06-25T23:50:15.032Z,8.03
2018-06-25T23:52:43.121Z,6.67
2018-06-25T23:55:11.208Z,6.87
2018-06-25T23:57:39.271Z,6.63
